Time;durP1;ratioP1;P1;durP2;ratioP2;P2;SDS_P1;SDS_P2;PMS_P1;PMS_P2;Temp;Humidity;BMP_temperature;BMP_pressure;BME280_temperature;BME280_humidity;BME280_pressure;Samples;Min_cycle;Max_cycle;Signal;HPM_P1;HPM_P2
2023/05/31 00:02:14;;;;;;;3.67;2.20;;;10.90;99.90;;;;;;5033960;28;20463;-51
2023/05/31 00:04:41;;;;;;;5.43;1.83;;;10.90;99.90;;;;;;5030960;28;20544;-51
2023/05/31 00:07:07;;;;;;;4.60;1.80;;;10.80;99.90;;;;;;5021969;28;20493;-51
2023/05/31 00:09:35;;;;;;;2.27;2.07;;;10.90;99.90;;;;;;5030754;28;20555;-51
2023/05/31 00:12:02;;;;;;;4.80;1.73;;;10.70;99.90;;;;;;5033045;28;20540;-51
2023/05/31 00:14:28;;;;;;;9.50;1.90;;;10.70;99.90;;;;;;5025762;28;21009;-52
2023/05/31 00:16:55;;;;;;;2.43;1.90;;;10.70;99.90;;;;;;5028246;28;20494;-51
2023/05/31 00:19:21;;;;;;;8.10;1.77;;;10.50;99.90;;;;;;5029899;28;20589;-52
2023/05/31 00:21:48;;;;;;;2.70;1.60;;;10.40;99.90;;;;;;5032211;28;20526;-51
2023/05/31 00:24:14;;;;;;;4.00;1.63;;;10.40;99.90;;;;;;5033060;28;20463;-52
2023/05/31 00:26:42;;;;;;;3.10;2.17;;;10.30;99.90;;;;;;5029355;28;20594;-51
2023/05/31 00:29:09;;;;;;;10.20;2.20;;;10.30;99.90;;;;;;5025370;28;20902;-52
2023/05/31 00:31:36;;;;;;;2.03;1.83;;;10.10;99.90;;;;;;5031463;28;20485;-52
2023/05/31 00:34:02;;;;;;;3.13;2.03;;;10.00;95.20;;;;;;5031165;28;20509;-51
2023/05/31 00:36:29;;;;;;;2.40;1.70;;;10.00;64.30;;;;;;5030524;28;20537;-52
2023/05/31 00:38:55;;;;;;;3.27;2.10;;;9.90;55.10;;;;;;5028481;28;21022;-51
2023/05/31 00:41:23;;;;;;;4.60;1.50;;;10.00;41.00;;;;;;5030058;28;20578;-53
2023/05/31 00:43:51;;;;;;;2.30;1.60;;;10.00;43.40;;;;;;5030825;28;20842;-53
2023/05/31 00:46:26;;;;;;;17.33;2.13;;;10.00;41.70;;;;;;5031187;28;20628;-53
2023/05/31 00:48:53;;;;;;;5.30;1.77;;;9.80;41.00;;;;;;5028252;28;20587;-53
2023/05/31 00:51:20;;;;;;;2.67;2.47;;;9.80;36.90;;;;;;5029660;28;20513;-53
2023/05/31 00:53:47;;;;;;;2.13;1.93;;;9.90;36.70;;;;;;5024125;28;20541;-52
2023/05/31 00:56:14;;;;;;;2.23;1.93;;;9.80;39.50;;;;;;5029951;28;20900;-53
2023/05/31 00:58:42;;;;;;;3.30;2.37;;;9.70;33.60;;;;;;5025819;28;20534;-53
2023/05/31 01:01:10;;;;;;;5.63;1.67;;;9.70;26.60;;;;;;5027556;28;20478;-53
2023/05/31 01:03:37;;;;;;;2.73;1.80;;;9.70;35.10;;;;;;5029117;28;20509;-53
2023/05/31 01:06:05;;;;;;;2.40;2.10;;;9.70;30.30;;;;;;5028647;28;20511;-53
2023/05/31 01:08:31;;;;;;;3.10;2.60;;;9.60;26.70;;;;;;5024071;28;21060;-52
2023/05/31 01:11:01;;;;;;;2.03;1.90;;;9.50;99.90;;;;;;5022768;28;20574;-53
2023/05/31 01:13:37;;;;;;;5.27;2.83;;;9.50;20.00;;;;;;5026377;28;20975;-53
2023/05/31 01:16:10;;;;;;;3.57;2.13;;;9.40;79.50;;;;;;5026259;28;20489;-53
2023/05/31 01:18:44;;;;;;;3.80;1.77;;;9.30;93.30;;;;;;5029758;28;20499;-53
2023/05/31 01:21:13;;;;;;;2.30;2.00;;;9.30;99.90;;;;;;5016706;28;20487;-52
2023/05/31 01:23:54;;;;;;;2.33;2.07;;;9.30;99.90;;;;;;5034671;28;20475;-52
2023/05/31 01:26:40;;;;;;;2.40;1.90;;;9.30;99.90;;;;;;5030953;28;20471;-53
2023/05/31 01:29:11;;;;;;;2.00;1.60;;;9.30;83.10;;;;;;5025636;28;20538;-53
2023/05/31 01:31:40;;;;;;;5.67;2.23;;;9.30;94.10;;;;;;5031511;28;20933;-53
2023/05/31 01:34:07;;;;;;;3.03;2.13;;;9.10;99.90;;;;;;5032001;28;20525;-53
2023/05/31 01:36:34;;;;;;;6.00;2.03;;;9.10;99.90;;;;;;5029877;28;20545;-53
2023/05/31 01:39:03;;;;;;;5.10;1.67;;;9.10;99.90;;;;;;5031376;28;20443;-53
2023/05/31 01:41:31;;;;;;;2.00;1.90;;;9.10;99.90;;;;;;5030781;28;20548;-53
2023/05/31 01:44:00;;;;;;;2.33;2.07;;;9.10;99.90;;;;;;5031670;28;20563;-53
2023/05/31 01:46:28;;;;;;;3.30;2.47;;;9.00;99.90;;;;;;5024938;28;20571;-53
2023/05/31 01:48:55;;;;;;;3.70;2.10;;;8.90;99.90;;;;;;5029112;28;20497;-54
2023/05/31 01:51:23;;;;;;;1.90;1.80;;;8.90;99.90;;;;;;5020095;28;20507;-53
2023/05/31 01:53:49;;;;;;;2.40;2.20;;;8.90;99.90;;;;;;5022890;28;20967;-52
2023/05/31 01:56:19;;;;;;;3.17;1.70;;;8.80;99.90;;;;;;5028751;28;20463;-52
2023/05/31 01:58:48;;;;;;;3.97;2.10;;;8.80;99.90;;;;;;5030201;28;20554;-54
2023/05/31 02:01:18;;;;;;;4.00;2.00;;;8.70;99.90;;;;;;5026693;28;20477;-53
2023/05/31 02:03:44;;;;;;;11.93;2.67;;;8.60;99.90;;;;;;5030969;28;20542;-52
2023/05/31 02:06:12;;;;;;;5.33;2.10;;;8.60;99.90;;;;;;5032323;28;20515;-53
2023/05/31 02:08:40;;;;;;;6.53;2.47;;;8.60;99.90;;;;;;5030471;28;20458;-53
2023/05/31 02:11:07;;;;;;;12.13;1.80;;;8.70;99.90;;;;;;5029923;28;20486;-53
2023/05/31 02:13:35;;;;;;;3.27;2.27;;;8.50;99.90;;;;;;5033009;28;20910;-52
2023/05/31 02:16:03;;;;;;;4.63;2.20;;;8.40;99.90;;;;;;5030463;28;20560;-53
2023/05/31 02:18:32;;;;;;;1.93;1.60;;;8.40;99.90;;;;;;5029547;28;20875;-53
2023/05/31 02:20:59;;;;;;;4.10;2.17;;;8.40;99.90;;;;;;5028792;28;20527;-53
2023/05/31 02:23:25;;;;;;;2.80;2.07;;;8.50;99.90;;;;;;5027068;28;20489;-54
2023/05/31 02:25:52;;;;;;;2.07;1.87;;;8.40;99.90;;;;;;5033033;28;20494;-52
2023/05/31 02:28:19;;;;;;;3.70;2.40;;;8.40;99.90;;;;;;5031016;28;20542;-53
2023/05/31 02:30:54;;;;;;;2.03;1.93;;;8.40;99.90;;;;;;5031459;28;20686;-53
2023/05/31 02:33:21;;;;;;;5.73;2.30;;;8.40;99.90;;;;;;5033201;28;20498;-52
2023/05/31 02:35:49;;;;;;;6.90;2.07;;;8.40;99.90;;;;;;5038841;28;20462;-54
2023/05/31 02:38:16;;;;;;;3.13;2.80;;;8.40;99.90;;;;;;5034361;28;20898;-53
2023/05/31 02:40:42;;;;;;;3.90;2.40;;;8.40;99.90;;;;;;5030225;28;20575;-53
2023/05/31 02:43:10;;;;;;;2.13;1.90;;;8.30;99.90;;;;;;5030196;28;20546;-53
2023/05/31 02:45:36;;;;;;;2.43;1.87;;;8.20;99.90;;;;;;5034665;28;20447;-52
2023/05/31 02:48:05;;;;;;;2.30;2.07;;;8.10;99.90;;;;;;5034576;28;20482;-52
2023/05/31 02:50:32;;;;;;;3.73;2.47;;;8.00;99.90;;;;;;5029871;28;20488;-54
2023/05/31 02:53:00;;;;;;;3.57;2.10;;;8.10;99.90;;;;;;5035013;28;20501;-53
2023/05/31 02:55:27;;;;;;;10.73;2.33;;;8.10;99.90;;;;;;5034154;28;20452;-54
2023/05/31 02:57:53;;;;;;;3.73;2.73;;;8.00;99.90;;;;;;5034761;28;20478;-53
2023/05/31 03:00:20;;;;;;;2.13;1.93;;;8.10;99.90;;;;;;5032660;28;20943;-54
2023/05/31 03:02:47;;;;;;;3.73;2.57;;;8.10;99.90;;;;;;5034257;28;20451;-53
2023/05/31 03:05:13;;;;;;;2.53;1.97;;;8.10;99.90;;;;;;5034785;28;20852;-53
2023/05/31 03:07:40;;;;;;;6.93;1.90;;;8.10;99.90;;;;;;5034727;28;20570;-52
2023/05/31 03:10:10;;;;;;;3.50;2.10;;;7.90;99.90;;;;;;5033710;28;20548;-53
2023/05/31 03:12:37;;;;;;;2.80;1.93;;;7.90;99.90;;;;;;5032534;28;21051;-53
2023/05/31 03:15:04;;;;;;;2.30;2.00;;;7.80;99.90;;;;;;5027393;28;20460;-52
2023/05/31 03:17:31;;;;;;;2.83;2.63;;;7.90;99.90;;;;;;5027320;28;20935;-52
2023/05/31 03:19:58;;;;;;;3.97;2.27;;;7.80;99.90;;;;;;5030531;28;20471;-52
2023/05/31 03:22:25;;;;;;;4.70;2.43;;;7.80;99.90;;;;;;5027158;28;20474;-53
2023/05/31 03:24:51;;;;;;;2.07;1.90;;;7.80;99.90;;;;;;5030393;28;20463;-52
2023/05/31 03:27:19;;;;;;;2.20;2.00;;;7.90;99.90;;;;;;5031097;28;20577;-53
2023/05/31 03:29:46;;;;;;;2.60;2.20;;;7.90;99.90;;;;;;5023348;28;20529;-53
2023/05/31 03:32:12;;;;;;;6.83;2.80;;;8.00;99.90;;;;;;5029656;28;20538;-52
2023/05/31 03:34:39;;;;;;;3.37;2.00;;;8.10;99.90;;;;;;5029232;28;20550;-53
2023/05/31 03:37:06;;;;;;;3.77;2.13;;;8.00;99.90;;;;;;5028969;28;20455;-53
2023/05/31 03:39:32;;;;;;;3.63;1.93;;;8.00;99.90;;;;;;5029756;28;20882;-53
2023/05/31 03:42:00;;;;;;;5.23;2.10;;;8.00;99.90;;;;;;5029096;28;20548;-53
2023/05/31 03:44:28;;;;;;;10.03;2.47;;;8.00;99.90;;;;;;5031616;28;20502;-54
2023/05/31 03:46:55;;;;;;;3.53;1.97;;;8.00;99.90;;;;;;5027820;28;20569;-53
2023/05/31 03:49:21;;;;;;;4.87;2.37;;;8.00;99.90;;;;;;5031550;28;20491;-53
2023/05/31 03:51:48;;;;;;;2.90;2.40;;;8.00;99.90;;;;;;5031435;28;20566;-52
2023/05/31 03:54:15;;;;;;;8.43;2.40;;;8.10;99.90;;;;;;5031694;28;20491;-52
2023/05/31 03:56:41;;;;;;;2.33;2.13;;;8.10;99.90;;;;;;5029946;28;20487;-52
2023/05/31 03:59:08;;;;;;;2.20;2.00;;;8.10;99.90;;;;;;5025414;28;20542;-52
2023/05/31 04:01:37;;;;;;;2.47;1.83;;;8.20;99.90;;;;;;5029812;28;20540;-52
2023/05/31 04:04:03;;;;;;;3.10;2.47;;;8.20;99.90;;;;;;5030793;28;20200;-52
2023/05/31 04:06:30;;;;;;;4.60;2.27;;;8.30;99.90;;;;;;5028123;28;21003;-52
2023/05/31 04:08:57;;;;;;;2.67;2.43;;;8.40;99.90;;;;;;5034259;28;20554;-53
2023/05/31 04:11:23;;;;;;;4.10;2.00;;;8.40;99.90;;;;;;5022397;28;20963;-53
2023/05/31 04:13:50;;;;;;;4.73;2.07;;;8.50;99.90;;;;;;5032510;28;20540;-52
2023/05/31 04:16:17;;;;;;;9.73;2.53;;;8.60;99.90;;;;;;5024674;28;20459;-52
2023/05/31 04:18:44;;;;;;;4.93;2.53;;;8.70;99.90;;;;;;5025374;28;20499;-52
2023/05/31 04:21:11;;;;;;;2.73;2.40;;;8.80;99.90;;;;;;5023710;28;20574;-52
2023/05/31 04:23:37;;;;;;;8.80;3.17;;;8.80;99.90;;;;;;5031450;28;20495;-52
2023/05/31 04:26:04;;;;;;;4.23;1.90;;;8.90;99.90;;;;;;5022904;28;20542;-52
2023/05/31 04:28:31;;;;;;;3.20;2.30;;;9.00;99.90;;;;;;5030065;28;20491;-52
2023/05/31 04:30:58;;;;;;;4.20;2.13;;;9.10;99.90;;;;;;5028430;28;20483;-53
2023/05/31 04:33:29;;;;;;;8.73;2.87;;;9.10;99.90;;;;;;5030057;28;20461;-53
2023/05/31 04:35:57;;;;;;;11.40;2.27;;;9.20;99.90;;;;;;5031547;28;20956;-53
2023/05/31 04:38:27;;;;;;;6.13;2.23;;;9.30;99.90;;;;;;5028053;28;20471;-53
2023/05/31 04:40:54;;;;;;;5.37;2.47;;;9.40;99.90;;;;;;5029548;28;20500;-53
2023/05/31 04:43:20;;;;;;;3.37;2.43;;;9.50;99.90;;;;;;5034205;28;20469;-53
2023/05/31 04:45:48;;;;;;;5.10;2.50;;;9.60;99.90;;;;;;5027876;28;20545;-52
2023/05/31 04:48:16;;;;;;;5.33;2.50;;;9.70;99.90;;;;;;5026692;28;20492;-52
2023/05/31 04:50:43;;;;;;;5.07;2.47;;;9.80;99.90;;;;;;5027831;28;20483;-55
2023/05/31 04:53:11;;;;;;;8.47;2.57;;;9.90;99.90;;;;;;5027505;28;20487;-53
2023/05/31 04:55:38;;;;;;;3.27;2.30;;;10.10;99.90;;;;;;5035356;28;20539;-53
2023/05/31 04:58:05;;;;;;;8.10;2.57;;;10.10;99.90;;;;;;5032883;28;20506;-54
2023/05/31 05:00:32;;;;;;;7.90;2.80;;;10.20;99.90;;;;;;5035882;28;20515;-54
2023/05/31 05:02:58;;;;;;;2.20;2.10;;;10.30;99.90;;;;;;5024408;28;20875;-53
2023/05/31 05:05:25;;;;;;;7.10;3.10;;;10.40;99.90;;;;;;5029986;28;20459;-53
2023/05/31 05:07:52;;;;;;;3.20;2.80;;;10.50;99.90;;;;;;5024669;28;20487;-53
2023/05/31 05:10:20;;;;;;;5.27;2.83;;;10.50;99.90;;;;;;5035060;28;20521;-52
2023/05/31 05:12:46;;;;;;;4.00;2.77;;;10.60;99.90;;;;;;5025453;28;20896;-52
2023/05/31 05:15:13;;;;;;;4.10;2.87;;;10.60;99.90;;;;;;5027317;28;21039;-53
2023/05/31 05:17:41;;;;;;;4.27;3.00;;;10.70;99.90;;;;;;5026660;28;20460;-52
2023/05/31 05:20:10;;;;;;;8.63;2.23;;;10.80;99.90;;;;;;5027337;28;20482;-53
2023/05/31 05:22:36;;;;;;;5.07;2.50;;;10.90;78.00;;;;;;5026379;28;20845;-52
2023/05/31 05:25:03;;;;;;;6.13;2.30;;;11.00;25.30;;;;;;5029945;28;20549;-53
2023/05/31 05:27:31;;;;;;;3.23;2.00;;;11.10;25.20;;;;;;5031011;28;20483;-52
2023/05/31 05:29:57;;;;;;;3.73;2.30;;;11.10;28.40;;;;;;5028713;28;20542;-53
2023/05/31 05:32:24;;;;;;;4.40;2.63;;;11.20;35.30;;;;;;5027261;28;20541;-52
2023/05/31 05:34:51;;;;;;;5.03;2.80;;;11.40;35.10;;;;;;5027353;28;20459;-52
2023/05/31 05:37:17;;;;;;;3.30;2.33;;;11.40;41.80;;;;;;5025183;28;20933;-52
2023/05/31 05:39:44;;;;;;;5.20;3.27;;;11.50;41.80;;;;;;5030691;28;20533;-52
2023/05/31 05:42:11;;;;;;;3.93;2.90;;;11.60;41.00;;;;;;5030124;28;20913;-53
2023/05/31 05:44:39;;;;;;;7.30;2.43;;;11.70;42.60;;;;;;5026433;28;20453;-53
2023/05/31 05:47:06;;;;;;;7.57;3.17;;;11.70;50.60;;;;;;5028007;28;20909;-52
2023/05/31 05:49:34;;;;;;;5.53;2.70;;;11.80;49.20;;;;;;5031435;28;20525;-52
2023/05/31 05:52:00;;;;;;;3.33;2.40;;;11.90;49.60;;;;;;5021305;28;20845;-51
2023/05/31 05:54:27;;;;;;;5.50;2.30;;;12.00;55.60;;;;;;5025611;28;20490;-52
2023/05/31 05:56:53;;;;;;;5.20;2.50;;;12.00;61.20;;;;;;5027215;28;20546;-53
2023/05/31 05:59:20;;;;;;;3.80;2.70;;;12.10;66.70;;;;;;5033978;28;20473;-53
2023/05/31 06:01:48;;;;;;;3.63;2.57;;;12.30;65.70;;;;;;5026217;28;20514;-52
2023/05/31 06:04:14;;;;;;;7.07;2.77;;;12.30;67.40;;;;;;5030961;28;20554;-53
2023/05/31 06:06:41;;;;;;;4.90;2.50;;;12.40;72.60;;;;;;5034722;28;20490;-52
2023/05/31 06:09:08;;;;;;;6.13;3.33;;;12.50;78.30;;;;;;5034106;28;20537;-52
2023/05/31 06:11:34;;;;;;;3.60;2.40;;;12.60;82.70;;;;;;5033591;28;20490;-52
2023/05/31 06:14:01;;;;;;;3.77;2.50;;;12.70;89.30;;;;;;5029389;28;20538;-53
2023/05/31 06:16:27;;;;;;;2.43;2.20;;;12.80;97.50;;;;;;5033312;28;21044;-52
2023/05/31 06:18:55;;;;;;;6.10;2.30;;;13.00;99.90;;;;;;5031456;28;20466;-52
2023/05/31 06:21:22;;;;;;;5.47;2.70;;;13.10;99.90;;;;;;5034095;28;20568;-55
2023/05/31 06:23:48;;;;;;;7.00;2.40;;;13.10;99.90;;;;;;5030189;28;20907;-53
2023/05/31 06:26:15;;;;;;;12.57;2.40;;;13.30;99.90;;;;;;5032422;28;20542;-52
2023/05/31 06:28:41;;;;;;;4.40;2.20;;;13.40;99.90;;;;;;5031261;28;20934;-52
2023/05/31 06:31:09;;;;;;;6.20;2.80;;;13.50;99.90;;;;;;5046371;28;20552;-53
2023/05/31 06:33:35;;;;;;;3.90;2.47;;;13.70;99.90;;;;;;5037731;28;20469;-52
2023/05/31 06:36:04;;;;;;;4.20;2.60;;;13.80;99.90;;;;;;5031695;28;20482;-52
2023/05/31 06:38:30;;;;;;;6.80;2.47;;;14.00;84.30;;;;;;5031528;28;20532;-52
2023/05/31 06:40:57;;;;;;;5.73;2.70;;;14.00;22.90;;;;;;5034495;23;20598;-56
2023/05/31 06:43:23;;;;;;;5.77;2.80;;;14.10;32.80;;;;;;5014081;28;20498;-56
2023/05/31 06:45:51;;;;;;;13.63;2.67;;;14.20;37.80;;;;;;5011321;28;20543;-55
2023/05/31 06:48:18;;;;;;;6.67;2.80;;;14.30;47.80;;;;;;5012054;28;20571;-54
2023/05/31 06:50:44;;;;;;;7.83;2.27;;;14.40;45.90;;;;;;5013085;28;21073;-55
2023/05/31 06:53:13;;;;;;;2.70;2.43;;;14.50;73.80;;;;;;5014318;28;20451;-56
2023/05/31 06:55:40;;;;;;;2.40;2.20;;;14.70;90.30;;;;;;5009205;28;20460;-55
2023/05/31 06:58:06;;;;;;;2.97;2.10;;;14.70;99.90;;;;;;5012533;28;20996;-56
2023/05/31 07:00:33;;;;;;;6.40;2.53;;;14.80;99.90;;;;;;5006814;28;20490;-55
2023/05/31 07:03:00;;;;;;;7.93;2.13;;;14.90;99.90;;;;;;5010736;28;20906;-56
2023/05/31 07:05:26;;;;;;;7.50;2.37;;;15.00;99.90;;;;;;5009972;28;20880;-54
2023/05/31 07:07:53;;;;;;;6.33;2.40;;;15.10;99.90;;;;;;5008168;28;21063;-54
2023/05/31 07:10:21;;;;;;;6.43;3.37;;;15.20;99.90;;;;;;5006480;28;20488;-54
2023/05/31 07:12:47;;;;;;;4.17;2.63;;;15.30;99.90;;;;;;5010092;28;20526;-55
2023/05/31 07:15:15;;;;;;;5.20;2.37;;;15.50;99.90;;;;;;5010127;28;20869;-55
2023/05/31 07:17:41;;;;;;;6.17;2.23;;;15.70;99.90;;;;;;5011157;28;20518;-55
2023/05/31 07:20:09;;;;;;;3.10;2.20;;;15.70;99.90;;;;;;5010226;28;20468;-56
2023/05/31 07:22:35;;;;;;;4.27;2.53;;;15.80;99.90;;;;;;5010856;28;20529;-56
2023/05/31 07:25:03;;;;;;;4.80;2.53;;;15.90;99.90;;;;;;4999695;28;20571;-54
2023/05/31 07:27:31;;;;;;;7.77;2.83;;;16.10;99.90;;;;;;5010589;28;21003;-55
2023/05/31 07:29:58;;;;;;;6.57;2.57;;;16.10;99.90;;;;;;5010699;28;20537;-56
2023/05/31 07:32:24;;;;;;;5.30;2.33;;;16.30;99.90;;;;;;5011513;28;20495;-55
2023/05/31 07:34:51;;;;;;;6.40;2.10;;;16.30;99.90;;;;;;5006933;28;20468;-54
2023/05/31 07:37:17;;;;;;;6.50;2.53;;;16.40;99.90;;;;;;5007641;28;20547;-54
2023/05/31 07:39:45;;;;;;;10.80;2.33;;;16.50;99.90;;;;;;5014298;28;20499;-56
2023/05/31 07:42:13;;;;;;;2.60;2.27;;;16.70;99.90;;;;;;5018216;28;20473;-55
2023/05/31 07:44:41;;;;;;;19.30;2.43;;;16.80;99.90;;;;;;5013329;28;20474;-55
2023/05/31 07:47:08;;;;;;;4.37;2.33;;;16.90;99.90;;;;;;5016192;28;20553;-54
2023/05/31 07:49:35;;;;;;;2.90;2.07;;;17.00;99.90;;;;;;5014465;28;21121;-56
2023/05/31 07:52:02;;;;;;;6.50;2.10;;;17.00;99.90;;;;;;5019511;28;20503;-54
2023/05/31 07:54:28;;;;;;;11.13;2.60;;;17.10;99.90;;;;;;5012327;28;20464;-55
2023/05/31 07:56:55;;;;;;;4.83;2.50;;;17.20;99.90;;;;;;5020396;28;20498;-54
2023/05/31 07:59:21;;;;;;;11.40;1.80;;;17.40;99.90;;;;;;5011942;28;20460;-55
2023/05/31 08:01:49;;;;;;;5.20;2.00;;;17.50;99.90;;;;;;5013749;28;20502;-54
2023/05/31 08:04:16;;;;;;;6.93;2.33;;;17.60;99.90;;;;;;5009576;28;20958;-54
2023/05/31 08:06:43;;;;;;;7.23;1.77;;;17.70;99.90;;;;;;5007780;28;20523;-54
2023/05/31 08:09:09;;;;;;;15.63;2.57;;;17.80;99.90;;;;;;5010337;28;20488;-54
2023/05/31 08:11:36;;;;;;;3.87;2.10;;;17.90;99.90;;;;;;5008874;28;20833;-54
2023/05/31 08:14:03;;;;;;;2.50;2.00;;;18.00;99.90;;;;;;5010339;28;20953;-53
2023/05/31 08:16:30;;;;;;;12.93;2.63;;;18.10;99.90;;;;;;5008019;28;20475;-55
2023/05/31 08:18:58;;;;;;;9.43;2.20;;;18.20;99.90;;;;;;5011218;28;20539;-55
2023/05/31 08:21:24;;;;;;;8.33;2.10;;;18.40;99.90;;;;;;5012167;28;20460;-53
2023/05/31 08:23:51;;;;;;;8.07;2.00;;;18.60;99.90;;;;;;5010667;28;20540;-55
2023/05/31 08:26:17;;;;;;;3.87;1.70;;;18.70;99.90;;;;;;5011185;28;20464;-54
2023/05/31 08:28:44;;;;;;;6.10;2.00;;;18.80;99.90;;;;;;5006788;28;20559;-50
2023/05/31 08:31:11;;;;;;;5.40;2.77;;;19.00;99.90;;;;;;5021228;28;20522;-51
2023/05/31 08:33:40;;;;;;;9.97;1.93;;;19.20;99.90;;;;;;5009890;28;20495;-51
2023/05/31 08:36:08;;;;;;;9.00;1.77;;;19.30;99.90;;;;;;5012866;28;20471;-51
2023/05/31 08:38:35;;;;;;;5.57;1.83;;;19.40;99.90;;;;;;5009596;28;20547;-50
2023/05/31 08:41:03;;;;;;;4.57;1.77;;;19.50;99.90;;;;;;5014375;28;20577;-51
2023/05/31 08:43:31;;;;;;;4.83;1.57;;;19.70;99.90;;;;;;5024311;28;20443;-50
2023/05/31 08:45:57;;;;;;;2.37;1.50;;;19.80;99.90;;;;;;5010257;28;20980;-50
2023/05/31 08:48:31;;;;;;;2.93;1.73;;;19.80;99.90;;;;;;5011691;28;20516;-50
2023/05/31 08:51:00;;;;;;;1.57;1.47;;;19.80;99.90;;;;;;5016310;28;20529;-51
2023/05/31 08:53:29;;;;;;;5.77;1.53;;;19.70;99.90;;;;;;5006894;28;20464;-50
2023/05/31 08:55:56;;;;;;;1.50;1.30;;;19.70;99.90;;;;;;5012343;28;20538;-51
2023/05/31 08:58:23;;;;;;;2.10;1.53;;;19.80;99.90;;;;;;5009718;28;20510;-50
2023/05/31 09:00:50;;;;;;;1.37;1.00;;;19.90;99.90;;;;;;5006999;28;20574;-50
2023/05/31 09:03:17;;;;;;;1.20;1.10;;;20.00;99.90;;;;;;5009771;28;20495;-51
2023/05/31 09:05:43;;;;;;;3.43;1.60;;;20.00;99.90;;;;;;5009807;28;20515;-50
2023/05/31 09:08:10;;;;;;;1.20;1.03;;;19.80;99.90;;;;;;5007545;28;20475;-51
2023/05/31 09:10:40;;;;;;;2.00;1.17;;;20.00;99.90;;;;;;5010042;28;20869;-50
2023/05/31 09:13:07;;;;;;;3.37;1.57;;;20.30;99.90;;;;;;5004630;28;20551;-50
2023/05/31 09:15:37;;;;;;;5.13;1.00;;;20.50;99.90;;;;;;5003253;28;20563;-51
2023/05/31 09:18:14;;;;;;;2.13;0.90;;;20.70;99.90;;;;;;5005795;28;20555;-51
2023/05/31 09:20:40;;;;;;;0.93;0.83;;;20.90;99.90;;;;;;5011987;28;20487;-51
2023/05/31 09:23:09;;;;;;;11.13;1.60;;;21.00;86.90;;;;;;5011179;28;20559;-51
2023/05/31 09:25:48;;;;;;;2.13;1.10;;;21.20;85.60;;;;;;5008087;28;20456;-50
2023/05/31 09:28:15;;;;;;;6.40;0.97;;;21.30;93.00;;;;;;5008518;28;20574;-50
2023/05/31 09:30:42;;;;;;;2.10;0.50;;;21.30;84.10;;;;;;5010863;28;20607;-51
2023/05/31 09:33:09;;;;;;;4.50;1.27;;;21.40;97.30;;;;;;5007588;28;20555;-50
2023/05/31 09:35:35;;;;;;;1.50;0.93;;;21.50;89.90;;;;;;5007200;28;20555;-51
2023/05/31 09:38:06;;;;;;;1.80;1.00;;;21.40;88.80;;;;;;5009384;28;20464;-50
2023/05/31 09:40:34;;;;;;;2.00;1.07;;;21.20;78.40;;;;;;5009279;28;20519;-51
2023/05/31 09:43:02;;;;;;;1.77;0.97;;;21.50;99.90;;;;;;5004333;28;20479;-51
2023/05/31 09:45:29;;;;;;;0.70;0.70;;;21.90;96.20;;;;;;5010206;28;20492;-50
2023/05/31 09:47:56;;;;;;;1.03;0.70;;;22.20;81.00;;;;;;5007625;28;20475;-51
2023/05/31 09:50:24;;;;;;;0.70;0.70;;;22.30;79.60;;;;;;5004666;28;20550;-51
2023/05/31 09:52:56;;;;;;;1.07;0.67;;;22.70;91.60;;;;;;5008837;28;20651;-50
2023/05/31 09:55:23;;;;;;;1.43;0.80;;;22.60;25.10;;;;;;5007701;28;20456;-50
2023/05/31 09:57:53;;;;;;;1.30;0.70;;;22.90;21.70;;;;;;5006264;28;20547;-51
2023/05/31 10:00:21;;;;;;;0.60;0.60;;;22.80;20.40;;;;;;5004275;28;20485;-50
2023/05/31 10:02:49;;;;;;;0.70;0.70;;;22.90;22.40;;;;;;5009582;28;20760;-50
2023/05/31 10:05:17;;;;;;;0.70;0.57;;;23.60;25.30;;;;;;5008579;28;20522;-51
2023/05/31 10:07:46;;;;;;;0.83;0.50;;;23.90;27.70;;;;;;5006917;28;20542;-51
2023/05/31 10:10:13;;;;;;;0.50;0.40;;;23.90;27.90;;;;;;5008117;28;20570;-51
2023/05/31 10:12:46;;;;;;;0.70;0.47;;;23.90;27.50;;;;;;5008855;28;20474;-51
2023/05/31 10:15:15;;;;;;;0.80;0.60;;;23.80;26.40;;;;;;5001425;28;20548;-50
2023/05/31 10:17:51;;;;;;;0.60;0.60;;;23.90;28.60;;;;;;5024523;28;20487;-51
2023/05/31 10:20:20;;;;;;;3.60;0.53;;;24.00;25.20;;;;;;5009682;28;20486;-50
2023/05/31 10:22:48;;;;;;;6.67;0.70;;;24.20;25.80;;;;;;5011349;28;20547;-51
2023/05/31 10:25:22;;;;;;;1.73;1.20;;;24.00;24.50;;;;;;5006246;28;20575;-51
2023/05/31 10:27:51;;;;;;;0.70;0.50;;;24.30;25.00;;;;;;5013634;28;20468;-50
2023/05/31 10:30:25;;;;;;;1.13;0.70;;;24.70;24.40;;;;;;5013096;28;20571;-50
2023/05/31 10:32:56;;;;;;;2.87;0.50;;;24.70;26.80;;;;;;5016419;28;20470;-51
2023/05/31 10:35:23;;;;;;;2.00;0.97;;;24.50;27.50;;;;;;5012800;28;20521;-51
2023/05/31 10:37:53;;;;;;;2.00;0.60;;;24.10;27.50;;;;;;5009025;28;21535;-51
2023/05/31 10:40:24;;;;;;;1.10;0.50;;;24.20;25.50;;;;;;5008392;28;20483;-51
2023/05/31 10:42:56;;;;;;;1.00;0.70;;;23.90;28.60;;;;;;5008774;28;21000;-51
2023/05/31 10:45:27;;;;;;;0.90;0.90;;;23.80;26.20;;;;;;5010665;28;21019;-51
2023/05/31 10:48:00;;;;;;;1.37;0.60;;;23.90;24.60;;;;;;5016229;28;20467;-51
2023/05/31 10:50:27;;;;;;;0.60;0.60;;;24.20;25.90;;;;;;5019855;28;20573;-50
2023/05/31 10:53:10;;;;;;;7.53;0.60;;;24.60;26.00;;;;;;5013513;28;20459;-51
2023/05/31 10:55:41;;;;;;;3.00;0.67;;;24.60;27.20;;;;;;5008986;28;20559;-51
2023/05/31 10:58:24;;;;;;;1.10;0.50;;;25.20;27.60;;;;;;5012432;28;20462;-51
2023/05/31 11:00:53;;;;;;;1.33;0.67;;;24.90;30.80;;;;;;4997234;28;20830;-51
2023/05/31 11:03:23;;;;;;;0.63;0.63;;;25.70;30.30;;;;;;5015157;28;20471;-51
2023/05/31 11:05:56;;;;;;;2.73;0.47;;;25.80;31.40;;;;;;5014306;28;20503;-51
2023/05/31 11:08:23;;;;;;;1.10;0.60;;;25.50;29.70;;;;;;5018906;28;20460;-51
2023/05/31 11:10:50;;;;;;;3.20;0.67;;;25.20;27.20;;;;;;5011397;28;20920;-51
2023/05/31 11:13:18;;;;;;;4.47;0.70;;;25.20;25.90;;;;;;5013608;28;20560;-50
2023/05/31 11:15:46;;;;;;;0.70;0.50;;;24.90;27.60;;;;;;5017199;28;21045;-50
2023/05/31 11:18:16;;;;;;;0.70;0.50;;;24.70;23.90;;;;;;5010071;28;20555;-51
2023/05/31 11:20:44;;;;;;;1.47;0.70;;;24.70;24.00;;;;;;5025112;28;20538;-50
2023/05/31 11:23:28;;;;;;;0.80;0.70;;;24.50;25.80;;;;;;5011279;28;20897;-51
2023/05/31 11:26:08;;;;;;;5.97;0.87;;;24.30;26.90;;;;;;5019371;28;20473;-50
2023/05/31 11:28:55;;;;;;;2.63;0.57;;;23.50;25.90;;;;;;5020494;28;20455;-51
2023/05/31 11:31:55;;;;;;;1.10;0.90;;;24.20;22.80;;;;;;5017505;28;20575;-51
2023/05/31 11:34:23;;;;;;;2.60;0.93;;;24.30;26.30;;;;;;5013252;28;20459;-51
2023/05/31 11:36:51;;;;;;;1.60;0.60;;;24.50;26.10;;;;;;5006840;28;20520;-50
2023/05/31 11:39:18;;;;;;;2.50;0.97;;;24.50;25.50;;;;;;5023689;28;20488;-51
2023/05/31 11:41:45;;;;;;;3.17;0.90;;;24.30;24.90;;;;;;5010396;28;20580;-51
2023/05/31 11:44:12;;;;;;;0.80;0.80;;;24.30;27.10;;;;;;5010455;28;20589;-51
2023/05/31 11:46:42;;;;;;;1.97;1.00;;;24.30;25.40;;;;;;5012382;28;20483;-51
2023/05/31 11:49:09;;;;;;;11.13;3.10;;;24.60;24.70;;;;;;5004903;28;20574;-51
2023/05/31 11:51:36;;;;;;;1.37;1.00;;;24.70;29.60;;;;;;5007532;28;20571;-50
2023/05/31 11:54:04;;;;;;;2.27;0.80;;;25.00;28.20;;;;;;5008430;28;20470;-50
2023/05/31 11:56:32;;;;;;;2.30;1.03;;;25.30;30.80;;;;;;5005346;28;20502;-51
2023/05/31 11:58:59;;;;;;;4.53;1.07;;;25.40;31.40;;;;;;5012045;28;20860;-51
2023/05/31 12:01:26;;;;;;;2.10;0.90;;;25.50;30.40;;;;;;5007465;28;20507;-50
2023/05/31 12:03:59;;;;;;;9.13;0.93;;;25.40;29.70;;;;;;5008447;28;20499;-51
2023/05/31 12:06:26;;;;;;;5.13;1.10;;;25.20;27.70;;;;;;5016182;28;20466;-51
2023/05/31 12:08:52;;;;;;;1.30;1.10;;;25.30;26.50;;;;;;5007981;28;20460;-52
2023/05/31 12:11:21;;;;;;;3.63;0.90;;;25.20;27.70;;;;;;5017608;28;20945;-52
2023/05/31 12:13:48;;;;;;;1.10;1.00;;;25.10;24.10;;;;;;5021788;28;21182;-51
2023/05/31 12:16:15;;;;;;;2.90;0.90;;;25.10;25.60;;;;;;5017745;28;20886;-51
2023/05/31 12:18:42;;;;;;;1.10;1.00;;;25.00;24.20;;;;;;5013375;28;20531;-51
2023/05/31 12:21:11;;;;;;;11.53;1.00;;;25.20;27.20;;;;;;5011615;28;20480;-51
2023/05/31 12:23:55;;;;;;;1.47;0.80;;;25.00;31.90;;;;;;5010111;28;20567;-51
2023/05/31 12:26:23;;;;;;;2.70;1.00;;;25.40;32.90;;;;;;5004620;28;20470;-51
2023/05/31 12:28:50;;;;;;;1.23;0.70;;;25.20;30.00;;;;;;5008657;28;20884;-50
2023/05/31 12:31:23;;;;;;;2.60;1.03;;;25.30;29.10;;;;;;5008691;28;21051;-51
2023/05/31 12:33:59;;;;;;;2.30;1.10;;;24.70;30.50;;;;;;5011407;28;20460;-51
2023/05/31 12:36:26;;;;;;;1.37;0.80;;;25.20;27.50;;;;;;5010375;28;20465;-51
2023/05/31 12:38:57;;;;;;;1.70;1.10;;;25.50;29.60;;;;;;5011109;28;20525;-51
2023/05/31 12:41:25;;;;;;;1.70;1.43;;;25.70;31.00;;;;;;4998791;28;20566;-55
2023/05/31 12:43:53;;;;;;;1.10;1.00;;;25.60;27.70;;;;;;5003351;28;20468;-55
2023/05/31 12:46:20;;;;;;;2.50;0.80;;;25.30;29.50;;;;;;5012961;28;20554;-54
2023/05/31 12:48:47;;;;;;;1.43;0.60;;;25.10;31.20;;;;;;5014341;28;20506;-57
2023/05/31 12:51:14;;;;;;;7.13;1.37;;;25.00;30.60;;;;;;5008405;28;20487;-54
2023/05/31 12:53:40;;;;;;;2.17;1.00;;;25.30;29.30;;;;;;5012127;28;20455;-55
2023/05/31 12:56:07;;;;;;;1.53;1.10;;;25.50;27.70;;;;;;5006526;28;20559;-55